This is the latest recevied weather packets stored in our database for station/object OK4PZ-5. If no packets are shown the sender has not sent any weather packets the latest 10 day(s).
| Time | Temp. | Humidity | Pressure | Rain* | Wind** | Luminosity | Snow |
|---|---|---|---|---|---|---|---|
| 1776963602 | 16.67° C | 25% | 1020 hPa | 0 mm | - | - | - |
| 1776962702 | 16.67° C | 24% | 1020 hPa | 0 mm | - | - | - |
| 1776961803 | 17.22° C | 24% | 1020 hPa | 0 mm | - | - | - |
| 1776960902 | 17.22° C | 23% | 1020 hPa | 0 mm | - | - | - |
| 1776960002 | 17.22° C | 23% | 1020 hPa | 0 mm | - | - | - |
| 1776959102 | 17.22° C | 22% | 1020 hPa | 0 mm | - | - | - |
| 1776958203 | 17.78° C | 21% | 1020 hPa | 0 mm | - | - | - |
| 1776957302 | 17.78° C | 20% | 1020 hPa | 0 mm | - | - | - |
| 1776956402 | 17.78° C | 20% | 1020 hPa | 0 mm | - | - | - |
| 1776955502 | 18.33° C | 18% | 1020 hPa | 0 mm | - | - | - |
| 1776954603 | 17.78° C | 20% | 1020 hPa | 0 mm | - | - | - |
| 1776953703 | 18.33° C | 18% | 1021 hPa | 0 mm | - | - | - |
| 1776952802 | 18.33° C | 20% | 1020 hPa | 0 mm | - | - | - |
| 1776951902 | 18.89° C | 23% | 1021 hPa | 0 mm | - | - | - |
| 1776951003 | 17.78° C | 25% | 1021 hPa | 0 mm | - | - | - |
| 1776950102 | 18.33° C | 23% | 1021 hPa | 0 mm | - | - | - |
| 1776949202 | 17.78° C | 26% | 1021 hPa | 0 mm | - | - | - |
| 1776948302 | 17.78° C | 25% | 1022 hPa | 0 mm | - | - | - |
| 1776947402 | 17.22° C | 27% | 1022 hPa | 0 mm | - | - | - |
| 1776946502 | 17.78° C | 27% | 1022 hPa | 0 mm | - | - | - |
| 1776945602 | 17.22° C | 30% | 1022 hPa | 0 mm | - | - | - |
| 1776944702 | 16.67° C | 30% | 1022 hPa | 0 mm | - | - | - |
| 1776943803 | 16.67° C | 30% | 1022 hPa | 0 mm | - | - | - |
| 1776942902 | 16.11° C | 30% | 1023 hPa | 0 mm | - | - | - |
| 1776942002 | 16.11° C | 31% | 1023 hPa | 0 mm | - | - | - |
* Rain latest hour (hover to see other rain measurements)
** Current wind speed in m/s (hover to see current wind gust speed)